SHT4H EGLL-EGAC
Flight info
| Callsign | SHT4H |
|---|---|
| Flight time | 0h 56m |
| Altitude | 36000 |
| Route | ULTIB T420 TNT UL28 RODOL UM65 TENSO L603 BELOX DCT REMSI DCT NINEB M148 MAGEE |
| Aircraft | A20N/M-SDE2E3FGHIJ1RWXY/LB1 |
Departure
| Time | 2026-04-26 18:15 |
|---|---|
| Airport | London Heathrow Airport (EGLL) |
Arrival
| Time | 2026-04-26 19:11 |
|---|---|
| Airport | George Best Belfast City Airport (EGAC) |
| Time | Latitude | Longitude | Altitude | Speed | Heading |
|---|---|---|---|---|---|
| 2026-04-26 17:25 | 51.46924 | -0.48789 | 87 ft | 0 kts | 359° |
| 2026-04-26 18:00 | 51.46912 | -0.48789 | 88 ft | 3 kts | 359° |
| 2026-04-26 18:00 | 51.46893 | -0.48790 | 87 ft | 3 kts | 17° |
| 2026-04-26 18:01 | 51.46879 | -0.48803 | 87 ft | 3 kts | 70° |
| 2026-04-26 18:01 | 51.46876 | -0.48833 | 88 ft | 2 kts | 90° |
| 2026-04-26 18:01 | 51.46875 | -0.48839 | 87 ft | 1 kts | 89° |
| 2026-04-26 18:01 | 51.46876 | -0.48813 | 88 ft | 3 kts | 89° |
| 2026-04-26 18:02 | 51.46876 | -0.48783 | 87 ft | 2 kts | 89° |
| 2026-04-26 18:02 | 51.46876 | -0.48778 | 87 ft | 1 kts | 89° |
| 2026-04-26 18:02 | 51.46876 | -0.48777 | 87 ft | 0 kts | 89° |
| 2026-04-26 18:04 | 51.46876 | -0.48775 | 87 ft | 1 kts | 92° |
| 2026-04-26 18:04 | 51.46850 | -0.48746 | 88 ft | 6 kts | 182° |
| 2026-04-26 18:04 | 51.46809 | -0.48753 | 88 ft | 0 kts | 179° |
| 2026-04-26 18:05 | 51.46702 | -0.48751 | 89 ft | 9 kts | 180° |
| 2026-04-26 18:05 | 51.46690 | -0.48751 | 89 ft | 2 kts | 180° |
| 2026-04-26 18:05 | 51.46626 | -0.48758 | 90 ft | 13 kts | 194° |
| 2026-04-26 18:05 | 51.46597 | -0.48773 | 88 ft | 0 kts | 199° |
| 2026-04-26 18:06 | 51.46584 | -0.48779 | 88 ft | 10 kts | 197° |
| 2026-04-26 18:07 | 51.46493 | -0.48754 | 87 ft | 16 kts | 133° |
| 2026-04-26 18:07 | 51.46477 | -0.48679 | 89 ft | 0 kts | 90° |
| 2026-04-26 18:08 | 51.46478 | -0.48598 | 88 ft | 29 kts | 89° |
| 2026-04-26 18:08 | 51.46479 | -0.47891 | 86 ft | 92 kts | 90° |
| 2026-04-26 18:09 | 51.46482 | -0.47495 | 85 ft | 0 kts | 89° |
| 2026-04-26 18:09 | 51.46483 | -0.47492 | 85 ft | 0 kts | 76° |
| 2026-04-26 18:10 | 51.46503 | -0.47493 | 85 ft | 11 kts | 352° |
| 2026-04-26 18:10 | 51.46638 | -0.47509 | 86 ft | 20 kts | 333° |
| 2026-04-26 18:10 | 51.46655 | -0.47644 | 88 ft | 14 kts | 267° |
| 2026-04-26 18:10 | 51.46651 | -0.47828 | 86 ft | 18 kts | 270° |
| 2026-04-26 18:11 | 51.46651 | -0.48050 | 86 ft | 21 kts | 270° |
| 2026-04-26 18:11 | 51.46613 | -0.48219 | 88 ft | 11 kts | 182° |
| 2026-04-26 18:11 | 51.46599 | -0.48217 | 87 ft | 0 kts | 176° |
| 2026-04-26 18:14 | 51.46539 | -0.48213 | 87 ft | 21 kts | 179° |
| 2026-04-26 18:14 | 51.46479 | -0.48141 | 88 ft | 7 kts | 89° |
| 2026-04-26 18:14 | 51.46478 | -0.47868 | 86 ft | 54 kts | 91° |
| 2026-04-26 18:14 | 51.46482 | -0.46824 | 89 ft | 131 kts | 90° |
| 2026-04-26 18:15 | 51.46489 | -0.45163 | 617 ft | 151 kts | 90° |
| 2026-04-26 18:15 | 51.46511 | -0.43457 | 1565 ft | 156 kts | 89° |
| 2026-04-26 18:15 | 51.46561 | -0.41677 | 2435 ft | 169 kts | 80° |
| 2026-04-26 18:15 | 51.47071 | -0.39859 | 2982 ft | 190 kts | 57° |
| 2026-04-26 18:16 | 51.47911 | -0.38058 | 3514 ft | 214 kts | 51° |
| 2026-04-26 18:16 | 51.50024 | -0.34000 | 4715 ft | 258 kts | 50° |
| 2026-04-26 18:16 | 51.51191 | -0.31726 | 5480 ft | 269 kts | 53° |
| 2026-04-26 18:17 | 51.52194 | -0.29200 | 6026 ft | 274 kts | 64° |
| 2026-04-26 18:17 | 51.52932 | -0.26350 | 7047 ft | 275 kts | 68° |
| 2026-04-26 18:17 | 51.53629 | -0.23450 | 7972 ft | 282 kts | 69° |
| 2026-04-26 18:17 | 51.54321 | -0.20445 | 8884 ft | 289 kts | 68° |
| 2026-04-26 18:18 | 51.55413 | -0.17719 | 9794 ft | 294 kts | 42° |
| 2026-04-26 18:18 | 51.57135 | -0.15964 | 10657 ft | 298 kts | 19° |
| 2026-04-26 18:18 | 51.59208 | -0.15371 | 11046 ft | 318 kts | 356° |
| 2026-04-26 18:18 | 51.61413 | -0.16197 | 11393 ft | 336 kts | 332° |
| 2026-04-26 18:19 | 51.63294 | -0.18452 | 12111 ft | 339 kts | 309° |
| 2026-04-26 18:19 | 51.64551 | -0.21655 | 12953 ft | 341 kts | 294° |
| 2026-04-26 18:19 | 51.65599 | -0.25112 | 13809 ft | 346 kts | 298° |
| 2026-04-26 18:19 | 51.67071 | -0.28216 | 14615 ft | 352 kts | 313° |
| 2026-04-26 18:20 | 51.69005 | -0.30682 | 15432 ft | 357 kts | 325° |
| 2026-04-26 18:20 | 51.71120 | -0.32819 | 16230 ft | 360 kts | 326° |
| 2026-04-26 18:20 | 51.73246 | -0.34898 | 16998 ft | 363 kts | 327° |
| 2026-04-26 18:20 | 51.74713 | -0.36316 | 17530 ft | 365 kts | 327° |
| 2026-04-26 18:21 | 51.77634 | -0.39129 | 18534 ft | 370 kts | 327° |
| 2026-04-26 18:21 | 51.79847 | -0.41264 | 19042 ft | 374 kts | 327° |
| 2026-04-26 18:21 | 51.82088 | -0.43430 | 19226 ft | 375 kts | 327° |
| 2026-04-26 18:21 | 51.84329 | -0.45601 | 19290 ft | 375 kts | 327° |
| 2026-04-26 18:22 | 51.86568 | -0.47772 | 19291 ft | 374 kts | 327° |
| 2026-04-26 18:22 | 51.88807 | -0.49948 | 19295 ft | 375 kts | 327° |
| 2026-04-26 18:22 | 51.91020 | -0.52100 | 19292 ft | 374 kts | 327° |
| 2026-04-26 18:22 | 51.93261 | -0.54285 | 19293 ft | 375 kts | 327° |
| 2026-04-26 18:23 | 51.95496 | -0.56466 | 19287 ft | 375 kts | 327° |
| 2026-04-26 18:23 | 51.97732 | -0.58650 | 19289 ft | 374 kts | 327° |
| 2026-04-26 18:23 | 51.99972 | -0.60840 | 19284 ft | 375 kts | 327° |
| 2026-04-26 18:23 | 52.02201 | -0.62937 | 19280 ft | 376 kts | 333° |
| 2026-04-26 18:24 | 52.04737 | -0.64086 | 19412 ft | 385 kts | 352° |
| 2026-04-26 18:24 | 52.07437 | -0.64019 | 20067 ft | 389 kts | 0° |
| 2026-04-26 18:24 | 52.10164 | -0.63766 | 20721 ft | 393 kts | 1° |
| 2026-04-26 18:24 | 52.12917 | -0.63505 | 21318 ft | 397 kts | 0° |
| 2026-04-26 18:25 | 52.15691 | -0.63238 | 21941 ft | 401 kts | 0° |
| 2026-04-26 18:25 | 52.18498 | -0.62981 | 22535 ft | 404 kts | 358° |
| 2026-04-26 18:25 | 52.21250 | -0.63464 | 23109 ft | 403 kts | 342° |
| 2026-04-26 18:25 | 52.23839 | -0.65151 | 23687 ft | 401 kts | 327° |
| 2026-04-26 18:26 | 52.26135 | -0.67756 | 24204 ft | 402 kts | 320° |
| 2026-04-26 18:26 | 52.28352 | -0.70568 | 24757 ft | 403 kts | 319° |
| 2026-04-26 18:26 | 52.30576 | -0.73411 | 25279 ft | 406 kts | 319° |
| 2026-04-26 18:26 | 52.32776 | -0.76182 | 25764 ft | 408 kts | 320° |
| 2026-04-26 18:27 | 52.35074 | -0.79036 | 26272 ft | 411 kts | 320° |
| 2026-04-26 18:27 | 52.37366 | -0.81860 | 26761 ft | 413 kts | 320° |
| 2026-04-26 18:27 | 52.39678 | -0.84700 | 27226 ft | 416 kts | 320° |
| 2026-04-26 18:27 | 52.42003 | -0.87556 | 27696 ft | 418 kts | 320° |
| 2026-04-26 18:28 | 52.44313 | -0.90396 | 28144 ft | 420 kts | 320° |
| 2026-04-26 18:28 | 52.46666 | -0.93295 | 28571 ft | 423 kts | 320° |
| 2026-04-26 18:28 | 52.49032 | -0.96213 | 28992 ft | 425 kts | 320° |
| 2026-04-26 18:28 | 52.51400 | -0.99138 | 29388 ft | 427 kts | 320° |
| 2026-04-26 18:29 | 52.53787 | -1.02093 | 29786 ft | 429 kts | 319° |
| 2026-04-26 18:29 | 52.56151 | -1.05021 | 30168 ft | 432 kts | 319° |
| 2026-04-26 18:29 | 52.58559 | -1.08009 | 30526 ft | 434 kts | 319° |
| 2026-04-26 18:29 | 52.60985 | -1.11023 | 30848 ft | 436 kts | 319° |
| 2026-04-26 18:30 | 52.63412 | -1.14043 | 31178 ft | 439 kts | 319° |
| 2026-04-26 18:30 | 52.65849 | -1.17080 | 31537 ft | 440 kts | 319° |
| 2026-04-26 18:30 | 52.68288 | -1.20123 | 31947 ft | 440 kts | 319° |
| 2026-04-26 18:30 | 52.70699 | -1.23135 | 32375 ft | 439 kts | 319° |
| 2026-04-26 18:31 | 52.73138 | -1.26186 | 32816 ft | 438 kts | 319° |
| 2026-04-26 18:31 | 52.75570 | -1.29234 | 33224 ft | 438 kts | 319° |
| 2026-04-26 18:31 | 52.77993 | -1.32275 | 33617 ft | 437 kts | 319° |
| 2026-04-26 18:31 | 52.80412 | -1.35316 | 34007 ft | 437 kts | 318° |
| 2026-04-26 18:32 | 52.82840 | -1.38371 | 34379 ft | 436 kts | 318° |
| 2026-04-26 18:32 | 52.85254 | -1.41414 | 34698 ft | 436 kts | 318° |
| 2026-04-26 18:32 | 52.87662 | -1.44454 | 35010 ft | 436 kts | 318° |
| 2026-04-26 18:32 | 52.90069 | -1.47497 | 35313 ft | 435 kts | 318° |
| 2026-04-26 18:33 | 52.92476 | -1.50544 | 35599 ft | 435 kts | 318° |
| 2026-04-26 18:33 | 52.94856 | -1.53561 | 35895 ft | 435 kts | 318° |
| 2026-04-26 18:33 | 52.97259 | -1.56613 | 36160 ft | 435 kts | 318° |
| 2026-04-26 18:33 | 52.99670 | -1.59678 | 36270 ft | 434 kts | 318° |
| 2026-04-26 18:34 | 53.04460 | -1.65778 | 36273 ft | 433 kts | 319° |
| 2026-04-26 18:34 | 53.09514 | -1.71255 | 36261 ft | 437 kts | 323° |
| 2026-04-26 18:35 | 53.14675 | -1.76623 | 36262 ft | 436 kts | 323° |
| 2026-04-26 18:35 | 53.19795 | -1.81973 | 36266 ft | 436 kts | 323° |
| 2026-04-26 18:36 | 53.24945 | -1.87354 | 36263 ft | 437 kts | 324° |
| 2026-04-26 18:36 | 53.30256 | -1.92389 | 36266 ft | 438 kts | 326° |
| 2026-04-26 18:37 | 53.35555 | -1.97325 | 36268 ft | 438 kts | 326° |
| 2026-04-26 18:37 | 53.40865 | -2.02352 | 36265 ft | 438 kts | 326° |
| 2026-04-26 18:38 | 53.46168 | -2.07410 | 36265 ft | 437 kts | 325° |
| 2026-04-26 18:38 | 53.51429 | -2.12446 | 36262 ft | 437 kts | 325° |
| 2026-04-26 18:39 | 53.56642 | -2.17724 | 36264 ft | 432 kts | 317° |
| 2026-04-26 18:39 | 53.60652 | -2.25022 | 36256 ft | 420 kts | 298° |
| 2026-04-26 18:40 | 53.63050 | -2.33826 | 36250 ft | 415 kts | 288° |
| 2026-04-26 18:40 | 53.65140 | -2.42913 | 36246 ft | 415 kts | 288° |
| 2026-04-26 18:41 | 53.67227 | -2.52021 | 36249 ft | 415 kts | 288° |
| 2026-04-26 18:41 | 53.69292 | -2.61100 | 36257 ft | 416 kts | 287° |
| 2026-04-26 18:42 | 53.71360 | -2.70246 | 36259 ft | 417 kts | 287° |
| 2026-04-26 18:42 | 53.73414 | -2.79370 | 36262 ft | 417 kts | 287° |
| 2026-04-26 18:43 | 53.75477 | -2.88573 | 36266 ft | 418 kts | 287° |
| 2026-04-26 18:43 | 53.77534 | -2.97791 | 36268 ft | 418 kts | 287° |
| 2026-04-26 18:44 | 53.79571 | -3.06957 | 36275 ft | 418 kts | 287° |
| 2026-04-26 18:44 | 53.81612 | -3.16182 | 36267 ft | 419 kts | 287° |
| 2026-04-26 18:45 | 53.83640 | -3.25390 | 36269 ft | 419 kts | 287° |
| 2026-04-26 18:45 | 53.85668 | -3.34640 | 36269 ft | 419 kts | 287° |
| 2026-04-26 18:46 | 53.87351 | -3.42343 | 36201 ft | 416 kts | 287° |
| 2026-04-26 18:46 | 53.88352 | -3.46934 | 35822 ft | 416 kts | 287° |
| 2026-04-26 18:46 | 53.89341 | -3.51484 | 35209 ft | 418 kts | 286° |
| 2026-04-26 18:47 | 53.90363 | -3.56196 | 34457 ft | 418 kts | 286° |
| 2026-04-26 18:47 | 53.91363 | -3.60824 | 33450 ft | 418 kts | 286° |
| 2026-04-26 18:47 | 53.92354 | -3.65426 | 32403 ft | 421 kts | 286° |
| 2026-04-26 18:47 | 53.93364 | -3.70134 | 31360 ft | 430 kts | 286° |
| 2026-04-26 18:48 | 53.94391 | -3.74926 | 30707 ft | 431 kts | 287° |
| 2026-04-26 18:48 | 53.95421 | -3.79705 | 30414 ft | 428 kts | 288° |
| 2026-04-26 18:48 | 53.96653 | -3.84347 | 30288 ft | 433 kts | 294° |
| 2026-04-26 18:48 | 53.98134 | -3.88751 | 30266 ft | 435 kts | 296° |
| 2026-04-26 18:49 | 54.01154 | -3.97675 | 30215 ft | 432 kts | 296° |
| 2026-04-26 18:49 | 54.02642 | -4.02103 | 29530 ft | 430 kts | 296° |
| 2026-04-26 18:49 | 54.04128 | -4.06539 | 28215 ft | 435 kts | 296° |
| 2026-04-26 18:50 | 54.05640 | -4.11062 | 26883 ft | 438 kts | 297° |
| 2026-04-26 18:50 | 54.06640 | -4.13821 | 26212 ft | 437 kts | 302° |
| 2026-04-26 18:50 | 54.08392 | -4.18016 | 25269 ft | 430 kts | 303° |
| 2026-04-26 18:50 | 54.10113 | -4.22156 | 24348 ft | 423 kts | 304° |
| 2026-04-26 18:51 | 54.11794 | -4.26231 | 23541 ft | 414 kts | 304° |
| 2026-04-26 18:51 | 54.13425 | -4.30190 | 22947 ft | 398 kts | 304° |
| 2026-04-26 18:51 | 54.14974 | -4.33951 | 22371 ft | 386 kts | 304° |
| 2026-04-26 18:51 | 54.16512 | -4.37686 | 21776 ft | 382 kts | 304° |
| 2026-04-26 18:52 | 54.18032 | -4.41377 | 21207 ft | 378 kts | 304° |
| 2026-04-26 18:52 | 54.19541 | -4.45045 | 20622 ft | 375 kts | 304° |
| 2026-04-26 18:52 | 54.21037 | -4.48684 | 20047 ft | 372 kts | 304° |
| 2026-04-26 18:52 | 54.22520 | -4.52299 | 19473 ft | 370 kts | 304° |
| 2026-04-26 18:53 | 54.23976 | -4.55852 | 18867 ft | 368 kts | 304° |
| 2026-04-26 18:53 | 54.25441 | -4.59438 | 18293 ft | 366 kts | 304° |
| 2026-04-26 18:53 | 54.26894 | -4.62999 | 17710 ft | 362 kts | 304° |
| 2026-04-26 18:53 | 54.28329 | -4.66525 | 17146 ft | 359 kts | 304° |
| 2026-04-26 18:54 | 54.29746 | -4.70009 | 16585 ft | 356 kts | 304° |
| 2026-04-26 18:54 | 54.31154 | -4.73473 | 16022 ft | 353 kts | 304° |
| 2026-04-26 18:54 | 54.32554 | -4.76924 | 15468 ft | 350 kts | 304° |
| 2026-04-26 18:54 | 54.33939 | -4.80343 | 14916 ft | 348 kts | 303° |
| 2026-04-26 18:55 | 54.35318 | -4.83751 | 14352 ft | 347 kts | 303° |
| 2026-04-26 18:55 | 54.36671 | -4.87100 | 13799 ft | 345 kts | 303° |
| 2026-04-26 18:55 | 54.38032 | -4.90472 | 13239 ft | 342 kts | 303° |
| 2026-04-26 18:55 | 54.39377 | -4.93809 | 12701 ft | 338 kts | 303° |
| 2026-04-26 18:56 | 54.40713 | -4.97130 | 12159 ft | 336 kts | 303° |
| 2026-04-26 18:56 | 54.42034 | -5.00419 | 11628 ft | 333 kts | 303° |
| 2026-04-26 18:56 | 54.43348 | -5.03697 | 11097 ft | 331 kts | 303° |
| 2026-04-26 18:56 | 54.44652 | -5.06947 | 10618 ft | 328 kts | 303° |
| 2026-04-26 18:57 | 54.45913 | -5.10062 | 10477 ft | 314 kts | 303° |
| 2026-04-26 18:57 | 54.46747 | -5.12113 | 10395 ft | 305 kts | 303° |
| 2026-04-26 18:57 | 54.48311 | -5.15965 | 10221 ft | 288 kts | 303° |
| 2026-04-26 18:57 | 54.49449 | -5.18776 | 9864 ft | 284 kts | 303° |
| 2026-04-26 18:58 | 54.50502 | -5.21639 | 9439 ft | 281 kts | 296° |
| 2026-04-26 18:58 | 54.51245 | -5.24733 | 9008 ft | 279 kts | 286° |
| 2026-04-26 18:58 | 54.51792 | -5.27934 | 8621 ft | 277 kts | 286° |
| 2026-04-26 18:58 | 54.52345 | -5.31094 | 8232 ft | 275 kts | 286° |
| 2026-04-26 18:59 | 54.52895 | -5.34194 | 7841 ft | 273 kts | 286° |
| 2026-04-26 18:59 | 54.53447 | -5.37310 | 7459 ft | 271 kts | 286° |
| 2026-04-26 18:59 | 54.53995 | -5.40411 | 7066 ft | 269 kts | 286° |
| 2026-04-26 18:59 | 54.54537 | -5.43489 | 6679 ft | 268 kts | 286° |
| 2026-04-26 19:00 | 54.55075 | -5.46554 | 6309 ft | 265 kts | 286° |
| 2026-04-26 19:00 | 54.55606 | -5.49593 | 5915 ft | 264 kts | 286° |
| 2026-04-26 19:00 | 54.56134 | -5.52614 | 5592 ft | 260 kts | 286° |
| 2026-04-26 19:00 | 54.56638 | -5.55499 | 5489 ft | 248 kts | 286° |
| 2026-04-26 19:01 | 54.57125 | -5.58294 | 5391 ft | 237 kts | 286° |
| 2026-04-26 19:01 | 54.57587 | -5.60946 | 5302 ft | 226 kts | 286° |
| 2026-04-26 19:01 | 54.58030 | -5.63492 | 5210 ft | 216 kts | 286° |
| 2026-04-26 19:01 | 54.58450 | -5.65914 | 5130 ft | 206 kts | 286° |
| 2026-04-26 19:02 | 54.58787 | -5.68265 | 4923 ft | 200 kts | 271° |
| 2026-04-26 19:02 | 54.58427 | -5.70561 | 4687 ft | 207 kts | 237° |
| 2026-04-26 19:02 | 54.57378 | -5.72250 | 4430 ft | 206 kts | 219° |
| 2026-04-26 19:02 | 54.56606 | -5.73231 | 4283 ft | 209 kts | 218° |
| 2026-04-26 19:03 | 54.55042 | -5.75206 | 4103 ft | 208 kts | 218° |
| 2026-04-26 19:03 | 54.53868 | -5.76685 | 3974 ft | 208 kts | 218° |
| 2026-04-26 19:03 | 54.52714 | -5.78142 | 3850 ft | 208 kts | 218° |
| 2026-04-26 19:03 | 54.51540 | -5.79626 | 3725 ft | 208 kts | 218° |
| 2026-04-26 19:04 | 54.50370 | -5.81102 | 3597 ft | 208 kts | 218° |
| 2026-04-26 19:04 | 54.49197 | -5.82576 | 3468 ft | 208 kts | 218° |
| 2026-04-26 19:04 | 54.48030 | -5.84039 | 3380 ft | 207 kts | 218° |
| 2026-04-26 19:04 | 54.46863 | -5.85506 | 3312 ft | 208 kts | 218° |
| 2026-04-26 19:05 | 54.44538 | -5.88429 | 3149 ft | 208 kts | 220° |
| 2026-04-26 19:05 | 54.43701 | -5.90359 | 3063 ft | 203 kts | 255° |
| 2026-04-26 19:05 | 54.43693 | -5.92729 | 2991 ft | 200 kts | 291° |
| 2026-04-26 19:06 | 54.44424 | -5.94753 | 2927 ft | 201 kts | 308° |
| 2026-04-26 19:06 | 54.45288 | -5.96637 | 2847 ft | 200 kts | 308° |
| 2026-04-26 19:06 | 54.46149 | -5.98516 | 2771 ft | 200 kts | 308° |
| 2026-04-26 19:06 | 54.47047 | -6.00344 | 2636 ft | 200 kts | 321° |
| 2026-04-26 19:07 | 54.48305 | -6.01223 | 2468 ft | 202 kts | 356° |
| 2026-04-26 19:07 | 54.49680 | -6.00845 | 2296 ft | 199 kts | 14° |
| 2026-04-26 19:07 | 54.50956 | -5.99994 | 2116 ft | 193 kts | 26° |
| 2026-04-26 19:07 | 54.52051 | -5.98870 | 2034 ft | 171 kts | 32° |
| 2026-04-26 19:08 | 54.52959 | -5.97805 | 2019 ft | 152 kts | 32° |
| 2026-04-26 19:08 | 54.53797 | -5.96812 | 1835 ft | 139 kts | 33° |
| 2026-04-26 19:08 | 54.54554 | -5.95909 | 1660 ft | 128 kts | 32° |
| 2026-04-26 19:08 | 54.55296 | -5.95027 | 1500 ft | 129 kts | 33° |
| 2026-04-26 19:09 | 54.56030 | -5.94152 | 1336 ft | 127 kts | 32° |
| 2026-04-26 19:09 | 54.56757 | -5.93307 | 1147 ft | 127 kts | 33° |
| 2026-04-26 19:09 | 54.57476 | -5.92450 | 956 ft | 125 kts | 34° |
| 2026-04-26 19:09 | 54.58187 | -5.91585 | 829 ft | 125 kts | 36° |
| 2026-04-26 19:10 | 54.58903 | -5.90710 | 609 ft | 125 kts | 35° |
| 2026-04-26 19:10 | 54.59616 | -5.89859 | 432 ft | 127 kts | 34° |
| 2026-04-26 19:10 | 54.60346 | -5.89000 | 249 ft | 126 kts | 34° |
| 2026-04-26 19:10 | 54.61069 | -5.88148 | 92 ft | 124 kts | 35° |
| 2026-04-26 19:11 | 54.61761 | -5.87310 | 19 ft | 110 kts | 35° |
| 2026-04-26 19:11 | 54.62225 | -5.86757 | 20 ft | 52 kts | 35° |
| 2026-04-26 19:11 | 54.62388 | -5.86561 | 22 ft | 22 kts | 31° |
| 2026-04-26 19:11 | 54.62462 | -5.86502 | 20 ft | 2 kts | 112° |
| 2026-04-26 19:12 | 54.62455 | -5.86500 | 21 ft | 3 kts | 161° |
| 2026-04-26 19:12 | 54.62371 | -5.86584 | 21 ft | 26 kts | 215° |
| 2026-04-26 19:12 | 54.62194 | -5.86795 | 19 ft | 31 kts | 214° |
| 2026-04-26 19:12 | 54.62023 | -5.87000 | 16 ft | 28 kts | 214° |
| 2026-04-26 19:13 | 54.61867 | -5.87163 | 18 ft | 22 kts | 195° |
| 2026-04-26 19:13 | 54.61798 | -5.87088 | 18 ft | 15 kts | 126° |
| 2026-04-26 19:13 | 54.61720 | -5.87000 | 21 ft | 14 kts | 200° |
| 2026-04-26 19:13 | 54.61629 | -5.87106 | 21 ft | 18 kts | 214° |
| 2026-04-26 19:14 | 54.61543 | -5.87209 | 22 ft | 9 kts | 215° |
| 2026-04-26 19:14 | 54.61490 | -5.87211 | 21 ft | 9 kts | 153° |
| 2026-04-26 19:14 | 54.61465 | -5.87190 | 22 ft | 0 kts | 155° |
| 2026-04-26 19:14 | 54.61464 | -5.87190 | 22 ft | 1 kts | 156° |
| 2026-04-26 19:15 | 54.61462 | -5.87188 | 22 ft | 0 kts | 156° |